Elwood, IN

9:35 PM EST on December 10, 2016 (GMT -0500)
Windfall | | Change Station
Active Advisory: Special Statement

Elev 883 ft 40.36 °N, 85.95 °W | Updated 43 seconds ago

Snow
Snow
24.2 °F
Feels Like 24 °F
N
2.0
Wind Variable Wind from ESE

Today
High -- | Low -- °F
--% Chance of Precip.
Yesterday
High -- | Low -- °F
Precip. -- in
Pressure 30.39 in
Visibility 2.0 miles
Clouds Overcast 1800 ft
Windchill 24 °F
Dew Point 24 °F
Humidity 98%
Rainfall 0.00 in
Snow Depth Not available.
7:55 AM 5:17 PM
Waxing Gibbous, 88% visible
METAR KMZZ 110215Z AUTO 00000KT 2SM -SN OVC018 M05/M05 A3039 RMK AO2 T10471055
Pressure 30.39 in
Visibility 2.0 miles
Clouds Overcast 1800 ft
Windchill 24 °F
Dew Point 24 °F
Humidity 98%
Rainfall 0.00 in
Snow Depth Not available.
7:55 AM 5:17 PM
Waxing Gibbous, 88% visible
METAR KMZZ 110215Z AUTO 00000KT 2SM -SN OVC018 M05/M05 A3039 RMK AO2 T10471055

10-Day Weather Forecast

Almanac

Astronomy

Dec. 10, 2016 Rise Set
Actual Time
Civil Twilight
Nautical Twilight
Astronomical Twilight
Moon
Length of Visible Light
Length of Day
Tomorrow will be .
, % of the Moon is Illuminated

Today's Extremes

State Highs State Lows

Community

WunderPhotos

Upload Photos

1,956,692 photos uploaded!

WunderBlog® & News

Nearby

Air Quality

  Air Quality AQ Index Pollutant
Not available.

Snow Depth

Station Depth Elevation

Earthquake Activity

City Distance Mag. Time & Date
Minimum magnitude displayed is 2.5.

Coastal Water Temperatures

Place Temperature

Stations

Nearby Weather Stations

Station Location Temp. Windchill Dew Point Humidity Wind Precip. Elev Updated Type
                   

Watches & Warnings

Special Statement
Issued: 6:53 PM EST Dec. 10, 2016 – National Weather Service

... Light snow overspreading North Central Indiana this evening...

Light snow will spread across areas to the north of a Crawfordsville
to the northern Indianapolis suburbs to New Castle line through
the evening. The snow will cause reduced visibilities and slick
spots on roadways. Minor accumulations are possible up to 1 inch by
daybreak Sunday... primarily across far northern sections of
central Indiana.


Ryan

653 PM EST Sat Dec 10 2016

... Light snow overspreading North Central Indiana this evening...

Light snow will spread across areas to the north of a Crawfordsville
to the northern Indianapolis suburbs to New Castle line through
the evening. The snow will cause reduced visibilities and slick
spots on roadways. Minor accumulations are possible up to 1 inch by
daybreak Sunday... primarily across far northern sections of
central Indiana.


Ryan